Terminal Aerodrome Forecast
Issued by NWS Detroit/Pontiac, MI

Home | Current Version | Previous Version | Text Only | Print | Product List | Glossary On
Versions: 1 2 3 4 5 6 7 8 9 10 11 12 13 14
000
FTUS43 KDTX 282324
TAFFNT
TAF
KFNT 282324Z 0100/0124 20005KT P6SM BKN200
     FM010700 15003KT P6SM -SN BKN040 OVC080
     FM011100 12003KT 4SM -SN BKN028 OVC040
     FM011400 22006KT P6SM BKN035 OVC060=

USA.gov is the U.S. government's official web portal to all federal, state and local government web resources and services.